sensor_id;sensor_type;location;lat;lon;timestamp;P1;durP1;ratioP1;P2;durP2;ratioP2
56373;SDS011;58212;47.034;7.376;2022-09-27T00:00:39;2.72;;;2.00;;
56373;SDS011;58212;47.034;7.376;2022-09-27T00:03:07;2.22;;;1.77;;
56373;SDS011;58212;47.034;7.376;2022-09-27T00:05:34;2.95;;;2.05;;
56373;SDS011;58212;47.034;7.376;2022-09-27T00:08:01;2.17;;;1.98;;
56373;SDS011;58212;47.034;7.376;2022-09-27T00:10:28;3.05;;;1.60;;
56373;SDS011;58212;47.034;7.376;2022-09-27T00:12:55;1.63;;;1.52;;
56373;SDS011;58212;47.034;7.376;2022-09-27T00:15:24;2.22;;;1.88;;
56373;SDS011;58212;47.034;7.376;2022-09-27T00:17:52;1.45;;;1.35;;
56373;SDS011;58212;47.034;7.376;2022-09-27T00:20:19;2.17;;;1.65;;
56373;SDS011;58212;47.034;7.376;2022-09-27T00:22:47;1.70;;;1.48;;
56373;SDS011;58212;47.034;7.376;2022-09-27T00:25:14;1.60;;;1.42;;
56373;SDS011;58212;47.034;7.376;2022-09-27T00:27:42;1.60;;;1.50;;
56373;SDS011;58212;47.034;7.376;2022-09-27T00:30:12;1.60;;;1.50;;
56373;SDS011;58212;47.034;7.376;2022-09-27T00:32:42;2.10;;;1.42;;
56373;SDS011;58212;47.034;7.376;2022-09-27T00:35:09;2.58;;;1.38;;
56373;SDS011;58212;47.034;7.376;2022-09-27T00:37:37;1.45;;;1.05;;
56373;SDS011;58212;47.034;7.376;2022-09-27T00:40:04;1.25;;;1.15;;
56373;SDS011;58212;47.034;7.376;2022-09-27T00:42:32;2.22;;;1.15;;
56373;SDS011;58212;47.034;7.376;2022-09-27T00:45:02;1.58;;;1.40;;
56373;SDS011;58212;47.034;7.376;2022-09-27T00:47:39;1.10;;;0.95;;
56373;SDS011;58212;47.034;7.376;2022-09-27T00:50:14;2.00;;;1.13;;
56373;SDS011;58212;47.034;7.376;2022-09-27T00:52:47;1.20;;;1.10;;
56373;SDS011;58212;47.034;7.376;2022-09-27T00:55:22;1.30;;;1.20;;
56373;SDS011;58212;47.034;7.376;2022-09-27T00:57:52;1.13;;;1.00;;
56373;SDS011;58212;47.034;7.376;2022-09-27T01:00:19;0.95;;;0.90;;
56373;SDS011;58212;47.034;7.376;2022-09-27T01:02:49;1.55;;;1.25;;
56373;SDS011;58212;47.034;7.376;2022-09-27T01:05:19;0.98;;;0.98;;
56373;SDS011;58212;47.034;7.376;2022-09-27T01:07:48;1.83;;;1.00;;
56373;SDS011;58212;47.034;7.376;2022-09-27T01:10:16;2.28;;;0.80;;
56373;SDS011;58212;47.034;7.376;2022-09-27T01:12:48;3.10;;;1.00;;
56373;SDS011;58212;47.034;7.376;2022-09-27T01:15:28;0.85;;;0.80;;
56373;SDS011;58212;47.034;7.376;2022-09-27T01:18:08;1.63;;;0.75;;
56373;SDS011;58212;47.034;7.376;2022-09-27T01:20:51;1.00;;;0.82;;
56373;SDS011;58212;47.034;7.376;2022-09-27T01:23:53;1.15;;;0.80;;
56373;SDS011;58212;47.034;7.376;2022-09-27T01:26:40;0.98;;;0.82;;
56373;SDS011;58212;47.034;7.376;2022-09-27T01:29:25;0.93;;;0.50;;
56373;SDS011;58212;47.034;7.376;2022-09-27T01:32:01;0.98;;;0.93;;
56373;SDS011;58212;47.034;7.376;2022-09-27T01:34:34;0.88;;;0.80;;
56373;SDS011;58212;47.034;7.376;2022-09-27T01:37:09;1.17;;;0.65;;
56373;SDS011;58212;47.034;7.376;2022-09-27T01:39:45;1.10;;;0.88;;
56373;SDS011;58212;47.034;7.376;2022-09-27T01:42:30;0.80;;;0.80;;
56373;SDS011;58212;47.034;7.376;2022-09-27T01:45:05;1.88;;;0.88;;
56373;SDS011;58212;47.034;7.376;2022-09-27T01:47:49;1.15;;;0.68;;
56373;SDS011;58212;47.034;7.376;2022-09-27T01:50:51;1.17;;;0.70;;
56373;SDS011;58212;47.034;7.376;2022-09-27T01:53:23;1.25;;;0.60;;
56373;SDS011;58212;47.034;7.376;2022-09-27T01:56:12;0.40;;;0.40;;
56373;SDS011;58212;47.034;7.376;2022-09-27T01:58:49;1.67;;;0.60;;
56373;SDS011;58212;47.034;7.376;2022-09-27T02:01:20;0.98;;;0.47;;
56373;SDS011;58212;47.034;7.376;2022-09-27T02:03:52;0.82;;;0.40;;
56373;SDS011;58212;47.034;7.376;2022-09-27T02:06:30;0.93;;;0.50;;
56373;SDS011;58212;47.034;7.376;2022-09-27T02:09:13;0.35;;;0.32;;
56373;SDS011;58212;47.034;7.376;2022-09-27T02:12:02;0.47;;;0.40;;
56373;SDS011;58212;47.034;7.376;2022-09-27T02:14:36;0.73;;;0.30;;
56373;SDS011;58212;47.034;7.376;2022-09-27T02:17:08;1.02;;;0.40;;
56373;SDS011;58212;47.034;7.376;2022-09-27T02:19:52;1.08;;;0.50;;
56373;SDS011;58212;47.034;7.376;2022-09-27T02:22:31;0.70;;;0.32;;
56373;SDS011;58212;47.034;7.376;2022-09-27T02:25:03;0.60;;;0.60;;
56373;SDS011;58212;47.034;7.376;2022-09-27T02:27:42;0.90;;;0.57;;
56373;SDS011;58212;47.034;7.376;2022-09-27T02:30:18;1.42;;;0.63;;
56373;SDS011;58212;47.034;7.376;2022-09-27T02:32:51;1.05;;;0.50;;
56373;SDS011;58212;47.034;7.376;2022-09-27T02:35:21;0.60;;;0.50;;
56373;SDS011;58212;47.034;7.376;2022-09-27T02:37:51;0.68;;;0.60;;
56373;SDS011;58212;47.034;7.376;2022-09-27T02:40:19;0.63;;;0.45;;
56373;SDS011;58212;47.034;7.376;2022-09-27T02:42:46;1.65;;;0.40;;
56373;SDS011;58212;47.034;7.376;2022-09-27T02:45:13;0.38;;;0.30;;
56373;SDS011;58212;47.034;7.376;2022-09-27T02:47:48;1.00;;;0.40;;
56373;SDS011;58212;47.034;7.376;2022-09-27T02:50:36;0.40;;;0.30;;
56373;SDS011;58212;47.034;7.376;2022-09-27T02:53:28;1.45;;;0.50;;
56373;SDS011;58212;47.034;7.376;2022-09-27T02:56:23;1.33;;;0.40;;
56373;SDS011;58212;47.034;7.376;2022-09-27T02:59:24;0.70;;;0.30;;
56373;SDS011;58212;47.034;7.376;2022-09-27T03:02:17;0.73;;;0.30;;
56373;SDS011;58212;47.034;7.376;2022-09-27T03:05:16;1.00;;;0.38;;
56373;SDS011;58212;47.034;7.376;2022-09-27T03:07:47;0.50;;;0.20;;
56373;SDS011;58212;47.034;7.376;2022-09-27T03:10:15;0.50;;;0.40;;
56373;SDS011;58212;47.034;7.376;2022-09-27T03:12:43;0.68;;;0.40;;
56373;SDS011;58212;47.034;7.376;2022-09-27T03:15:11;0.50;;;0.43;;
56373;SDS011;58212;47.034;7.376;2022-09-27T03:18:11;0.65;;;0.60;;
56373;SDS011;58212;47.034;7.376;2022-09-27T03:20:40;1.63;;;0.30;;
56373;SDS011;58212;47.034;7.376;2022-09-27T03:23:11;1.33;;;0.57;;
56373;SDS011;58212;47.034;7.376;2022-09-27T03:25:38;0.65;;;0.40;;
56373;SDS011;58212;47.034;7.376;2022-09-27T03:28:07;1.55;;;0.50;;
56373;SDS011;58212;47.034;7.376;2022-09-27T03:30:34;1.25;;;0.50;;
56373;SDS011;58212;47.034;7.376;2022-09-27T03:33:02;1.63;;;0.60;;
56373;SDS011;58212;47.034;7.376;2022-09-27T03:35:35;0.93;;;0.50;;
56373;SDS011;58212;47.034;7.376;2022-09-27T03:38:03;2.05;;;0.70;;
56373;SDS011;58212;47.034;7.376;2022-09-27T03:40:33;1.85;;;0.55;;
56373;SDS011;58212;47.034;7.376;2022-09-27T03:43:00;0.50;;;0.50;;
56373;SDS011;58212;47.034;7.376;2022-09-27T03:45:31;1.63;;;0.60;;
56373;SDS011;58212;47.034;7.376;2022-09-27T03:48:02;2.05;;;0.50;;
56373;SDS011;58212;47.034;7.376;2022-09-27T03:50:30;0.82;;;0.50;;
56373;SDS011;58212;47.034;7.376;2022-09-27T03:52:57;1.88;;;0.70;;
56373;SDS011;58212;47.034;7.376;2022-09-27T03:55:24;1.40;;;0.50;;
56373;SDS011;58212;47.034;7.376;2022-09-27T03:57:53;2.15;;;0.80;;
56373;SDS011;58212;47.034;7.376;2022-09-27T04:00:20;1.75;;;0.77;;
56373;SDS011;58212;47.034;7.376;2022-09-27T04:02:48;2.85;;;0.73;;
56373;SDS011;58212;47.034;7.376;2022-09-27T04:05:22;1.50;;;0.55;;
56373;SDS011;58212;47.034;7.376;2022-09-27T04:07:52;1.63;;;0.90;;
56373;SDS011;58212;47.034;7.376;2022-09-27T04:10:21;3.00;;;0.63;;
56373;SDS011;58212;47.034;7.376;2022-09-27T04:12:49;2.47;;;0.63;;
56373;SDS011;58212;47.034;7.376;2022-09-27T04:15:20;1.35;;;0.60;;
56373;SDS011;58212;47.034;7.376;2022-09-27T04:17:47;2.25;;;1.00;;
56373;SDS011;58212;47.034;7.376;2022-09-27T04:20:33;2.97;;;1.00;;
56373;SDS011;58212;47.034;7.376;2022-09-27T04:23:11;2.30;;;1.00;;
56373;SDS011;58212;47.034;7.376;2022-09-27T04:25:44;3.92;;;1.00;;
56373;SDS011;58212;47.034;7.376;2022-09-27T04:28:27;2.53;;;0.98;;
56373;SDS011;58212;47.034;7.376;2022-09-27T04:30:57;2.70;;;1.10;;
56373;SDS011;58212;47.034;7.376;2022-09-27T04:33:33;3.05;;;0.63;;
56373;SDS011;58212;47.034;7.376;2022-09-27T04:36:05;4.13;;;0.68;;
56373;SDS011;58212;47.034;7.376;2022-09-27T04:39:16;2.10;;;0.60;;
56373;SDS011;58212;47.034;7.376;2022-09-27T04:41:45;1.30;;;0.60;;
56373;SDS011;58212;47.034;7.376;2022-09-27T04:44:12;1.48;;;0.82;;
56373;SDS011;58212;47.034;7.376;2022-09-27T04:46:44;0.95;;;0.68;;
56373;SDS011;58212;47.034;7.376;2022-09-27T04:49:12;5.03;;;1.02;;
56373;SDS011;58212;47.034;7.376;2022-09-27T04:51:40;1.70;;;0.65;;
56373;SDS011;58212;47.034;7.376;2022-09-27T04:54:07;1.58;;;0.82;;
56373;SDS011;58212;47.034;7.376;2022-09-27T04:56:42;1.20;;;0.60;;
56373;SDS011;58212;47.034;7.376;2022-09-27T04:59:09;2.50;;;0.80;;
56373;SDS011;58212;47.034;7.376;2022-09-27T05:01:38;2.38;;;0.77;;
56373;SDS011;58212;47.034;7.376;2022-09-27T05:04:26;1.83;;;0.68;;
56373;SDS011;58212;47.034;7.376;2022-09-27T05:06:58;1.73;;;0.85;;
56373;SDS011;58212;47.034;7.376;2022-09-27T05:09:35;5.05;;;1.02;;
56373;SDS011;58212;47.034;7.376;2022-09-27T05:12:02;1.73;;;0.70;;
56373;SDS011;58212;47.034;7.376;2022-09-27T05:14:44;1.35;;;0.80;;
56373;SDS011;58212;47.034;7.376;2022-09-27T05:17:14;1.42;;;0.82;;
56373;SDS011;58212;47.034;7.376;2022-09-27T05:20:05;3.63;;;0.90;;
56373;SDS011;58212;47.034;7.376;2022-09-27T05:22:54;1.88;;;0.80;;
56373;SDS011;58212;47.034;7.376;2022-09-27T05:25:22;2.63;;;0.88;;
56373;SDS011;58212;47.034;7.376;2022-09-27T05:27:50;2.80;;;1.25;;
56373;SDS011;58212;47.034;7.376;2022-09-27T05:30:18;2.75;;;0.80;;
56373;SDS011;58212;47.034;7.376;2022-09-27T05:32:49;2.10;;;0.70;;
56373;SDS011;58212;47.034;7.376;2022-09-27T05:35:37;0.85;;;0.50;;
56373;SDS011;58212;47.034;7.376;2022-09-27T05:38:06;2.03;;;0.82;;
56373;SDS011;58212;47.034;7.376;2022-09-27T05:40:35;2.72;;;0.63;;
56373;SDS011;58212;47.034;7.376;2022-09-27T05:43:02;1.23;;;0.88;;
56373;SDS011;58212;47.034;7.376;2022-09-27T05:45:29;2.63;;;1.20;;
56373;SDS011;58212;47.034;7.376;2022-09-27T05:48:01;2.90;;;0.80;;
56373;SDS011;58212;47.034;7.376;2022-09-27T05:50:30;2.00;;;0.80;;
56373;SDS011;58212;47.034;7.376;2022-09-27T05:52:59;1.52;;;0.85;;
56373;SDS011;58212;47.034;7.376;2022-09-27T05:55:26;2.47;;;0.80;;
56373;SDS011;58212;47.034;7.376;2022-09-27T05:57:54;2.53;;;0.80;;
56373;SDS011;58212;47.034;7.376;2022-09-27T06:00:27;1.83;;;0.95;;
56373;SDS011;58212;47.034;7.376;2022-09-27T06:02:55;1.45;;;0.70;;
56373;SDS011;58212;47.034;7.376;2022-09-27T06:05:52;3.47;;;0.63;;
56373;SDS011;58212;47.034;7.376;2022-09-27T06:08:43;1.52;;;0.80;;
56373;SDS011;58212;47.034;7.376;2022-09-27T06:11:14;2.25;;;0.60;;
56373;SDS011;58212;47.034;7.376;2022-09-27T06:13:42;2.63;;;1.10;;
56373;SDS011;58212;47.034;7.376;2022-09-27T06:16:10;1.90;;;0.50;;
56373;SDS011;58212;47.034;7.376;2022-09-27T06:18:41;2.38;;;0.90;;
56373;SDS011;58212;47.034;7.376;2022-09-27T06:21:09;1.67;;;0.70;;
56373;SDS011;58212;47.034;7.376;2022-09-27T06:23:40;2.65;;;0.80;;
56373;SDS011;58212;47.034;7.376;2022-09-27T06:26:23;1.27;;;0.63;;
56373;SDS011;58212;47.034;7.376;2022-09-27T06:29:11;1.40;;;0.65;;
56373;SDS011;58212;47.034;7.376;2022-09-27T06:31:44;2.08;;;0.60;;
56373;SDS011;58212;47.034;7.376;2022-09-27T06:34:21;2.15;;;0.90;;
56373;SDS011;58212;47.034;7.376;2022-09-27T06:36:49;0.57;;;0.50;;
56373;SDS011;58212;47.034;7.376;2022-09-27T06:39:16;2.40;;;0.82;;
56373;SDS011;58212;47.034;7.376;2022-09-27T06:42:05;1.70;;;0.63;;
56373;SDS011;58212;47.034;7.376;2022-09-27T06:44:57;1.42;;;0.60;;
56373;SDS011;58212;47.034;7.376;2022-09-27T06:47:42;1.17;;;0.80;;
56373;SDS011;58212;47.034;7.376;2022-09-27T06:50:22;2.45;;;0.60;;
56373;SDS011;58212;47.034;7.376;2022-09-27T06:52:49;1.77;;;0.77;;
56373;SDS011;58212;47.034;7.376;2022-09-27T06:55:17;1.85;;;0.60;;
56373;SDS011;58212;47.034;7.376;2022-09-27T06:57:46;1.23;;;0.52;;
56373;SDS011;58212;47.034;7.376;2022-09-27T07:00:31;2.45;;;0.70;;
56373;SDS011;58212;47.034;7.376;2022-09-27T07:03:21;3.88;;;0.73;;
56373;SDS011;58212;47.034;7.376;2022-09-27T07:06:15;1.65;;;0.60;;
56373;SDS011;58212;47.034;7.376;2022-09-27T07:08:58;2.35;;;0.80;;
56373;SDS011;58212;47.034;7.376;2022-09-27T07:11:26;1.67;;;0.70;;
56373;SDS011;58212;47.034;7.376;2022-09-27T07:13:54;1.88;;;0.90;;
56373;SDS011;58212;47.034;7.376;2022-09-27T07:16:22;3.63;;;0.90;;
56373;SDS011;58212;47.034;7.376;2022-09-27T07:18:49;3.30;;;0.70;;
56373;SDS011;58212;47.034;7.376;2022-09-27T07:21:17;2.33;;;1.10;;
56373;SDS011;58212;47.034;7.376;2022-09-27T07:23:45;2.13;;;0.88;;
56373;SDS011;58212;47.034;7.376;2022-09-27T07:26:13;2.08;;;0.80;;
56373;SDS011;58212;47.034;7.376;2022-09-27T07:28:41;2.20;;;0.70;;
56373;SDS011;58212;47.034;7.376;2022-09-27T07:31:13;1.83;;;0.95;;
56373;SDS011;58212;47.034;7.376;2022-09-27T07:33:41;2.35;;;0.80;;
56373;SDS011;58212;47.034;7.376;2022-09-27T07:36:08;1.17;;;0.70;;
56373;SDS011;58212;47.034;7.376;2022-09-27T07:38:39;3.00;;;1.50;;
56373;SDS011;58212;47.034;7.376;2022-09-27T07:41:09;1.98;;;0.93;;
56373;SDS011;58212;47.034;7.376;2022-09-27T07:43:38;2.13;;;0.60;;
56373;SDS011;58212;47.034;7.376;2022-09-27T07:46:06;1.63;;;0.70;;
56373;SDS011;58212;47.034;7.376;2022-09-27T07:48:43;1.38;;;0.70;;
56373;SDS011;58212;47.034;7.376;2022-09-27T07:51:33;1.70;;;0.88;;
56373;SDS011;58212;47.034;7.376;2022-09-27T07:57:03;1.23;;;0.60;;
56373;SDS011;58212;47.034;7.376;2022-09-27T07:59:31;4.43;;;0.88;;
56373;SDS011;58212;47.034;7.376;2022-09-27T08:02:00;3.47;;;0.85;;
56373;SDS011;58212;47.034;7.376;2022-09-27T08:04:28;2.00;;;0.80;;
56373;SDS011;58212;47.034;7.376;2022-09-27T08:06:57;1.85;;;0.80;;
56373;SDS011;58212;47.034;7.376;2022-09-27T08:09:26;1.25;;;0.68;;
56373;SDS011;58212;47.034;7.376;2022-09-27T08:11:55;3.25;;;0.90;;
56373;SDS011;58212;47.034;7.376;2022-09-27T08:14:22;1.90;;;0.75;;
56373;SDS011;58212;47.034;7.376;2022-09-27T08:16:50;2.70;;;1.05;;
56373;SDS011;58212;47.034;7.376;2022-09-27T08:19:26;2.92;;;0.95;;
56373;SDS011;58212;47.034;7.376;2022-09-27T08:22:01;1.83;;;0.82;;
56373;SDS011;58212;47.034;7.376;2022-09-27T08:24:51;2.78;;;0.70;;
56373;SDS011;58212;47.034;7.376;2022-09-27T08:27:37;2.40;;;0.90;;
56373;SDS011;58212;47.034;7.376;2022-09-27T08:30:17;2.00;;;0.70;;
56373;SDS011;58212;47.034;7.376;2022-09-27T08:32:44;3.33;;;0.73;;
56373;SDS011;58212;47.034;7.376;2022-09-27T08:35:13;2.75;;;1.02;;
56373;SDS011;58212;47.034;7.376;2022-09-27T08:37:40;3.53;;;0.80;;
56373;SDS011;58212;47.034;7.376;2022-09-27T08:40:08;1.63;;;0.57;;
56373;SDS011;58212;47.034;7.376;2022-09-27T08:42:43;3.00;;;0.60;;
56373;SDS011;58212;47.034;7.376;2022-09-27T08:45:15;1.27;;;0.75;;
56373;SDS011;58212;47.034;7.376;2022-09-27T08:47:48;2.20;;;0.70;;
56373;SDS011;58212;47.034;7.376;2022-09-27T08:50:24;2.75;;;0.90;;
56373;SDS011;58212;47.034;7.376;2022-09-27T08:52:56;1.98;;;0.80;;
56373;SDS011;58212;47.034;7.376;2022-09-27T08:55:31;1.73;;;0.85;;
56373;SDS011;58212;47.034;7.376;2022-09-27T08:58:09;3.17;;;0.70;;
56373;SDS011;58212;47.034;7.376;2022-09-27T09:00:40;2.15;;;0.60;;
56373;SDS011;58212;47.034;7.376;2022-09-27T09:03:15;2.60;;;0.90;;
56373;SDS011;58212;47.034;7.376;2022-09-27T09:05:48;2.75;;;0.70;;
56373;SDS011;58212;47.034;7.376;2022-09-27T09:08:29;2.63;;;0.70;;
56373;SDS011;58212;47.034;7.376;2022-09-27T09:11:04;1.63;;;0.65;;
56373;SDS011;58212;47.034;7.376;2022-09-27T09:14:06;1.05;;;0.50;;
56373;SDS011;58212;47.034;7.376;2022-09-27T09:16:50;0.70;;;0.50;;
56373;SDS011;58212;47.034;7.376;2022-09-27T09:19:43;1.48;;;0.75;;
56373;SDS011;58212;47.034;7.376;2022-09-27T09:22:39;1.65;;;0.70;;
56373;SDS011;58212;47.034;7.376;2022-09-27T09:25:22;2.22;;;0.70;;
56373;SDS011;58212;47.034;7.376;2022-09-27T09:28:02;2.17;;;0.70;;
56373;SDS011;58212;47.034;7.376;2022-09-27T09:30:40;2.55;;;1.50;;
56373;SDS011;58212;47.034;7.376;2022-09-27T09:33:20;0.70;;;0.60;;
56373;SDS011;58212;47.034;7.376;2022-09-27T09:35:51;1.45;;;0.65;;
56373;SDS011;58212;47.034;7.376;2022-09-27T09:38:28;1.33;;;0.40;;
56373;SDS011;58212;47.034;7.376;2022-09-27T09:41:02;2.47;;;0.52;;
56373;SDS011;58212;47.034;7.376;2022-09-27T09:43:34;1.80;;;0.60;;
56373;SDS011;58212;47.034;7.376;2022-09-27T09:46:08;0.70;;;0.50;;
56373;SDS011;58212;47.034;7.376;2022-09-27T09:48:40;0.88;;;0.70;;
56373;SDS011;58212;47.034;7.376;2022-09-27T09:51:14;1.25;;;0.68;;
56373;SDS011;58212;47.034;7.376;2022-09-27T09:53:50;1.63;;;0.50;;
56373;SDS011;58212;47.034;7.376;2022-09-27T09:56:28;1.65;;;0.55;;
56373;SDS011;58212;47.034;7.376;2022-09-27T09:58:58;2.55;;;0.80;;
56373;SDS011;58212;47.034;7.376;2022-09-27T10:01:33;1.63;;;0.60;;
56373;SDS011;58212;47.034;7.376;2022-09-27T10:04:03;2.75;;;0.60;;
56373;SDS011;58212;47.034;7.376;2022-09-27T10:06:30;2.28;;;0.70;;
56373;SDS011;58212;47.034;7.376;2022-09-27T10:09:01;1.52;;;0.60;;
56373;SDS011;58212;47.034;7.376;2022-09-27T10:11:43;1.10;;;0.70;;
56373;SDS011;58212;47.034;7.376;2022-09-27T10:14:16;1.48;;;0.70;;
56373;SDS011;58212;47.034;7.376;2022-09-27T10:16:48;1.70;;;0.75;;
56373;SDS011;58212;47.034;7.376;2022-09-27T10:19:20;2.20;;;0.60;;
56373;SDS011;58212;47.034;7.376;2022-09-27T10:21:55;0.90;;;0.40;;
56373;SDS011;58212;47.034;7.376;2022-09-27T10:24:29;0.63;;;0.45;;
56373;SDS011;58212;47.034;7.376;2022-09-27T10:27:41;1.13;;;0.68;;
56373;SDS011;58212;47.034;7.376;2022-09-27T10:30:21;0.60;;;0.43;;
56373;SDS011;58212;47.034;7.376;2022-09-27T10:32:51;1.65;;;0.80;;
56373;SDS011;58212;47.034;7.376;2022-09-27T10:35:56;2.40;;;0.63;;
56373;SDS011;58212;47.034;7.376;2022-09-27T10:38:29;1.35;;;0.85;;
56373;SDS011;58212;47.034;7.376;2022-09-27T10:41:25;1.83;;;0.73;;
56373;SDS011;58212;47.034;7.376;2022-09-27T10:44:23;1.00;;;0.70;;
56373;SDS011;58212;47.034;7.376;2022-09-27T10:47:16;2.03;;;0.77;;
56373;SDS011;58212;47.034;7.376;2022-09-27T10:50:01;2.40;;;1.02;;
56373;SDS011;58212;47.034;7.376;2022-09-27T10:52:42;3.88;;;0.80;;
56373;SDS011;58212;47.034;7.376;2022-09-27T10:55:15;2.90;;;0.80;;
56373;SDS011;58212;47.034;7.376;2022-09-27T10:57:51;3.72;;;1.00;;
56373;SDS011;58212;47.034;7.376;2022-09-27T11:00:20;1.77;;;0.90;;
56373;SDS011;58212;47.034;7.376;2022-09-27T11:02:50;2.15;;;0.80;;
56373;SDS011;58212;47.034;7.376;2022-09-27T11:05:29;1.80;;;0.80;;
56373;SDS011;58212;47.034;7.376;2022-09-27T11:07:59;1.88;;;0.82;;
56373;SDS011;58212;47.034;7.376;2022-09-27T11:10:42;1.45;;;0.80;;
56373;SDS011;58212;47.034;7.376;2022-09-27T11:13:13;2.60;;;1.30;;
56373;SDS011;58212;47.034;7.376;2022-09-27T11:15:56;1.23;;;1.00;;
56373;SDS011;58212;47.034;7.376;2022-09-27T11:18:47;2.33;;;0.80;;
56373;SDS011;58212;47.034;7.376;2022-09-27T11:21:21;1.05;;;0.95;;
56373;SDS011;58212;47.034;7.376;2022-09-27T11:24:04;1.73;;;1.00;;
56373;SDS011;58212;47.034;7.376;2022-09-27T11:26:43;3.22;;;0.90;;
56373;SDS011;58212;47.034;7.376;2022-09-27T11:29:22;1.65;;;0.70;;
56373;SDS011;58212;47.034;7.376;2022-09-27T11:32:34;1.85;;;0.80;;
56373;SDS011;58212;47.034;7.376;2022-09-27T11:35:19;2.22;;;0.98;;
56373;SDS011;58212;47.034;7.376;2022-09-27T11:38:10;1.05;;;0.40;;
56373;SDS011;58212;47.034;7.376;2022-09-27T11:40:51;1.83;;;0.68;;
56373;SDS011;58212;47.034;7.376;2022-09-27T11:43:43;1.80;;;0.70;;
56373;SDS011;58212;47.034;7.376;2022-09-27T11:46:35;1.95;;;1.30;;
56373;SDS011;58212;47.034;7.376;2022-09-27T11:49:12;3.28;;;0.93;;
56373;SDS011;58212;47.034;7.376;2022-09-27T11:51:52;1.15;;;0.63;;
56373;SDS011;58212;47.034;7.376;2022-09-27T11:54:35;2.45;;;1.23;;
56373;SDS011;58212;47.034;7.376;2022-09-27T11:57:12;2.15;;;0.98;;
56373;SDS011;58212;47.034;7.376;2022-09-27T11:59:49;0.90;;;0.60;;
56373;SDS011;58212;47.034;7.376;2022-09-27T12:02:55;1.52;;;0.70;;
56373;SDS011;58212;47.034;7.376;2022-09-27T12:05:49;1.75;;;0.60;;
56373;SDS011;58212;47.034;7.376;2022-09-27T12:08:35;2.25;;;0.90;;
56373;SDS011;58212;47.034;7.376;2022-09-27T12:11:17;2.75;;;0.65;;
56373;SDS011;58212;47.034;7.376;2022-09-27T12:13:51;2.90;;;0.80;;
56373;SDS011;58212;47.034;7.376;2022-09-27T12:16:22;2.88;;;1.10;;
56373;SDS011;58212;47.034;7.376;2022-09-27T12:18:52;2.13;;;0.70;;
56373;SDS011;58212;47.034;7.376;2022-09-27T12:21:40;1.45;;;0.77;;
56373;SDS011;58212;47.034;7.376;2022-09-27T12:24:08;2.28;;;0.57;;
56373;SDS011;58212;47.034;7.376;2022-09-27T12:26:55;2.83;;;0.77;;
56373;SDS011;58212;47.034;7.376;2022-09-27T12:29:27;1.80;;;0.88;;
56373;SDS011;58212;47.034;7.376;2022-09-27T12:32:00;3.08;;;0.77;;
56373;SDS011;58212;47.034;7.376;2022-09-27T12:34:36;1.55;;;0.60;;
56373;SDS011;58212;47.034;7.376;2022-09-27T12:37:09;1.48;;;0.60;;
56373;SDS011;58212;47.034;7.376;2022-09-27T12:39:44;2.42;;;0.70;;
56373;SDS011;58212;47.034;7.376;2022-09-27T12:42:23;1.73;;;0.63;;
56373;SDS011;58212;47.034;7.376;2022-09-27T12:44:58;1.30;;;0.60;;
56373;SDS011;58212;47.034;7.376;2022-09-27T12:47:32;3.13;;;0.82;;
56373;SDS011;58212;47.034;7.376;2022-09-27T12:50:21;1.65;;;0.70;;
56373;SDS011;58212;47.034;7.376;2022-09-27T12:52:55;2.28;;;0.50;;
56373;SDS011;58212;47.034;7.376;2022-09-27T12:58:32;0.70;;;0.60;;
56373;SDS011;58212;47.034;7.376;2022-09-27T13:01:33;2.03;;;0.60;;
56373;SDS011;58212;47.034;7.376;2022-09-27T13:04:24;0.60;;;0.60;;
56373;SDS011;58212;47.034;7.376;2022-09-27T13:07:19;1.48;;;0.50;;
56373;SDS011;58212;47.034;7.376;2022-09-27T13:13:18;1.67;;;0.60;;
56373;SDS011;58212;47.034;7.376;2022-09-27T13:15:52;1.90;;;0.50;;
56373;SDS011;58212;47.034;7.376;2022-09-27T13:18:30;1.95;;;0.70;;
56373;SDS011;58212;47.034;7.376;2022-09-27T13:27:34;2.80;;;0.88;;
56373;SDS011;58212;47.034;7.376;2022-09-27T13:36:17;1.63;;;0.50;;
56373;SDS011;58212;47.034;7.376;2022-09-27T13:39:05;2.63;;;0.60;;
56373;SDS011;58212;47.034;7.376;2022-09-27T13:42:06;2.55;;;0.85;;
56373;SDS011;58212;47.034;7.376;2022-09-27T13:44:46;1.25;;;0.52;;
56373;SDS011;58212;47.034;7.376;2022-09-27T13:47:26;2.58;;;0.85;;
56373;SDS011;58212;47.034;7.376;2022-09-27T13:50:11;2.85;;;1.20;;
56373;SDS011;58212;47.034;7.376;2022-09-27T13:52:55;1.55;;;0.93;;
56373;SDS011;58212;47.034;7.376;2022-09-27T13:58:45;1.55;;;0.65;;
56373;SDS011;58212;47.034;7.376;2022-09-27T14:01:34;1.70;;;1.10;;
56373;SDS011;58212;47.034;7.376;2022-09-27T14:04:09;2.08;;;0.85;;
56373;SDS011;58212;47.034;7.376;2022-09-27T14:06:43;2.03;;;0.63;;
56373;SDS011;58212;47.034;7.376;2022-09-27T14:09:16;3.03;;;1.20;;
56373;SDS011;58212;47.034;7.376;2022-09-27T14:11:52;3.28;;;0.80;;
56373;SDS011;58212;47.034;7.376;2022-09-27T14:14:27;1.50;;;0.80;;
56373;SDS011;58212;47.034;7.376;2022-09-27T14:16:57;3.08;;;0.85;;
56373;SDS011;58212;47.034;7.376;2022-09-27T14:19:26;1.45;;;0.73;;
56373;SDS011;58212;47.034;7.376;2022-09-27T14:21:54;2.72;;;0.70;;
56373;SDS011;58212;47.034;7.376;2022-09-27T14:24:42;2.05;;;0.70;;
56373;SDS011;58212;47.034;7.376;2022-09-27T14:27:19;1.77;;;0.82;;
56373;SDS011;58212;47.034;7.376;2022-09-27T14:29:54;1.40;;;0.63;;
56373;SDS011;58212;47.034;7.376;2022-09-27T14:32:27;1.92;;;0.55;;
56373;SDS011;58212;47.034;7.376;2022-09-27T14:35:04;1.02;;;0.65;;
56373;SDS011;58212;47.034;7.376;2022-09-27T14:37:55;3.00;;;0.85;;
56373;SDS011;58212;47.034;7.376;2022-09-27T14:40:22;1.40;;;0.80;;
56373;SDS011;58212;47.034;7.376;2022-09-27T14:42:51;1.77;;;0.60;;
56373;SDS011;58212;47.034;7.376;2022-09-27T14:45:25;2.55;;;0.75;;
56373;SDS011;58212;47.034;7.376;2022-09-27T14:47:59;1.92;;;0.65;;
56373;SDS011;58212;47.034;7.376;2022-09-27T14:50:28;2.25;;;0.80;;
56373;SDS011;58212;47.034;7.376;2022-09-27T14:52:56;1.35;;;0.50;;
56373;SDS011;58212;47.034;7.376;2022-09-27T14:55:26;1.88;;;0.70;;
56373;SDS011;58212;47.034;7.376;2022-09-27T14:58:00;1.73;;;0.63;;
56373;SDS011;58212;47.034;7.376;2022-09-27T15:00:30;2.78;;;0.80;;
56373;SDS011;58212;47.034;7.376;2022-09-27T15:03:01;1.73;;;0.63;;
56373;SDS011;58212;47.034;7.376;2022-09-27T15:05:31;0.70;;;0.52;;
56373;SDS011;58212;47.034;7.376;2022-09-27T15:08:00;1.63;;;0.55;;
56373;SDS011;58212;47.034;7.376;2022-09-27T15:10:33;2.63;;;0.93;;
56373;SDS011;58212;47.034;7.376;2022-09-27T15:13:01;0.75;;;0.57;;
56373;SDS011;58212;47.034;7.376;2022-09-27T15:15:32;0.90;;;0.45;;
56373;SDS011;58212;47.034;7.376;2022-09-27T15:18:01;2.47;;;0.75;;
56373;SDS011;58212;47.034;7.376;2022-09-27T15:20:51;2.22;;;0.70;;
56373;SDS011;58212;47.034;7.376;2022-09-27T15:23:23;3.63;;;0.63;;
56373;SDS011;58212;47.034;7.376;2022-09-27T15:25:56;1.95;;;0.60;;
56373;SDS011;58212;47.034;7.376;2022-09-27T15:28:28;0.93;;;0.52;;
56373;SDS011;58212;47.034;7.376;2022-09-27T15:30:57;2.42;;;0.82;;
56373;SDS011;58212;47.034;7.376;2022-09-27T15:33:24;3.42;;;0.80;;
56373;SDS011;58212;47.034;7.376;2022-09-27T15:35:56;1.45;;;0.60;;
56373;SDS011;58212;47.034;7.376;2022-09-27T15:38:26;1.75;;;0.68;;
56373;SDS011;58212;47.034;7.376;2022-09-27T15:41:02;2.60;;;0.70;;
56373;SDS011;58212;47.034;7.376;2022-09-27T15:43:32;1.95;;;0.68;;
56373;SDS011;58212;47.034;7.376;2022-09-27T15:46:03;0.82;;;0.65;;
56373;SDS011;58212;47.034;7.376;2022-09-27T15:51:47;1.75;;;0.70;;
56373;SDS011;58212;47.034;7.376;2022-09-27T15:54:16;1.88;;;0.65;;
56373;SDS011;58212;47.034;7.376;2022-09-27T15:56:43;1.95;;;0.68;;
56373;SDS011;58212;47.034;7.376;2022-09-27T15:59:11;1.27;;;0.52;;
56373;SDS011;58212;47.034;7.376;2022-09-27T16:01:45;1.10;;;0.40;;
56373;SDS011;58212;47.034;7.376;2022-09-27T16:04:13;2.17;;;0.90;;
56373;SDS011;58212;47.034;7.376;2022-09-27T16:06:40;2.55;;;0.80;;